Time;durP1;ratioP1;P1;durP2;ratioP2;P2;SDS_P1;SDS_P2;PMS_P1;PMS_P2;Temp;Humidity;BMP_temperature;BMP_pressure;BME280_temperature;BME280_humidity;BME280_pressure;Samples;Min_cycle;Max_cycle;Signal;HPM_P1;HPM_P2
2023/03/29 00:02:01;;;;;;;;;;;;;;;1.57;100.00;99837.25;5094583;28;847;-70
2023/03/29 00:04:28;;;;;;;;;;;;;;;1.59;100.00;99845.88;5094597;28;1953;-69
2023/03/29 00:06:55;;;;;;;;;;;;;;;1.58;100.00;99842.38;5094478;28;898;-69
2023/03/29 00:09:22;;;;;;;;;;;;;;;1.56;100.00;99849.31;5094361;28;1261;-70
2023/03/29 00:11:49;;;;;;;;;;;;;;;1.56;100.00;99852.81;5076234;28;1063;-69
2023/03/29 00:14:16;;;;;;;;;;;;;;;1.61;100.00;99855.31;5094471;28;890;-69
2023/03/29 00:16:43;;;;;;;;;;;;;;;1.65;100.00;99854.63;5094375;28;839;-69
2023/03/29 00:19:10;;;;;;;;;;;;;;;1.61;100.00;99858.03;5094339;28;871;-70
2023/03/29 00:21:37;;;;;;;;;;;;;;;1.65;100.00;99857.34;5094358;28;906;-69
2023/03/29 00:24:04;;;;;;;;;;;;;;;1.69;100.00;99856.34;5094004;28;1909;-69
2023/03/29 00:26:31;;;;;;;;;;;;;;;1.68;100.00;99856.66;5093846;28;918;-68
2023/03/29 00:28:57;;;;;;;;;;;;;;;1.68;100.00;99862.91;5075866;28;1490;-69
2023/03/29 00:31:25;;;;;;;;;;;;;;;1.73;100.00;99857.25;5094112;28;884;-68
2023/03/29 00:33:51;;;;;;;;;;;;;;;1.70;100.00;99857.91;5094053;28;832;-68
2023/03/29 00:36:18;;;;;;;;;;;;;;;1.71;100.00;99854.06;5094002;28;875;-68
2023/03/29 00:38:45;;;;;;;;;;;;;;;1.70;100.00;99857.91;5093951;28;1057;-69
2023/03/29 00:41:12;;;;;;;;;;;;;;;1.65;100.00;99854.63;5093836;28;882;-70
2023/03/29 00:43:59;;;;;;;;;;;;;;;1.68;100.00;99843.81;5093777;28;1873;-70
2023/03/29 00:46:27;;;;;;;;;;;;;;;1.64;100.00;99848.38;5094061;28;831;-68
2023/03/29 00:48:56;;;;;;;;;;;;;;;1.60;100.00;99842.00;5093758;28;902;-69
2023/03/29 00:51:25;;;;;;;;;;;;;;;1.64;100.00;99848.38;5093647;28;891;-68
2023/03/29 00:53:55;;;;;;;;;;;;;;;1.59;100.00;99851.34;5093569;28;879;-69
2023/03/29 00:56:48;;;;;;;;;;;;;;;1.56;100.00;99846.56;5093503;28;906;-68
2023/03/29 00:59:17;;;;;;;;;;;;;;;1.58;100.00;99847.81;5090698;28;1135;-68
2023/03/29 01:01:44;;;;;;;;;;;;;;;1.58;100.00;99849.72;5093873;28;844;-70
2023/03/29 01:04:29;;;;;;;;;;;;;;;1.53;100.00;99853.47;5093466;28;1939;-70
2023/03/29 01:06:58;;;;;;;;;;;;;;;1.53;100.00;99858.13;5093385;28;898;-69
2023/03/29 01:09:28;;;;;;;;;;;;;;;1.52;100.00;99849.19;5093211;28;1482;-68
2023/03/29 01:11:56;;;;;;;;;;;;;;;1.52;100.00;99857.34;5093469;28;874;-69
2023/03/29 01:14:28;;;;;;;;;;;;;;;1.53;100.00;99856.19;5093269;28;914;-68
2023/03/29 01:16:55;;;;;;;;;;;;;;;1.52;100.00;99851.91;5093465;28;847;-67
2023/03/29 01:19:25;;;;;;;;;;;;;;;1.54;100.00;99846.13;5093119;28;823;-67
2023/03/29 01:22:03;;;;;;;;;;;;;;;1.55;100.00;99864.03;5093151;28;918;-68
2023/03/29 01:24:40;;;;;;;;;;;;;;;1.51;100.00;99850.28;5092928;28;1905;-69
2023/03/29 01:27:07;;;;;;;;;;;;;;;1.47;100.00;99862.22;5093063;28;855;-67
2023/03/29 01:29:35;;;;;;;;;;;;;;;1.43;100.00;99854.75;5092861;28;890;-70
2023/03/29 01:32:10;;;;;;;;;;;;;;;1.42;100.00;99844.19;5092943;28;860;-69
2023/03/29 01:34:42;;;;;;;;;;;;;;;1.42;100.00;99852.34;5092887;28;874;-70
2023/03/29 01:37:26;;;;;;;;;;;;;;;1.39;100.00;99842.16;5092058;28;898;-69
2023/03/29 01:39:52;;;;;;;;;;;;;;;1.47;100.00;99845.88;5092812;28;844;-68
2023/03/29 01:42:41;;;;;;;;;;;;;;;1.41;100.00;99850.78;5074608;28;1457;-68
2023/03/29 01:45:34;;;;;;;;;;;;;;;1.38;100.00;99841.31;5092637;28;1885;-69
2023/03/29 01:48:06;;;;;;;;;;;;;;;1.42;100.00;99842.25;5089340;28;1037;-66
2023/03/29 01:50:46;;;;;;;;;;;;;;;1.42;100.00;99844.97;5092588;28;906;-67
2023/03/29 01:53:13;;;;;;;;;;;;;;;1.45;100.00;99845.41;5074168;28;1165;-68
2023/03/29 01:55:42;;;;;;;;;;;;;;;1.42;100.00;99847.69;5092765;28;871;-68
2023/03/29 01:58:10;;;;;;;;;;;;;;;1.49;100.00;99844.41;5092454;28;916;-69
2023/03/29 02:00:39;;;;;;;;;;;;;;;1.46;100.00;99842.38;5092300;28;852;-67
2023/03/29 02:03:09;;;;;;;;;;;;;;;1.46;100.00;99852.47;5092467;28;1956;-68
2023/03/29 02:05:38;;;;;;;;;;;;;;;1.54;100.00;99855.09;5092250;28;815;-68
2023/03/29 02:08:06;;;;;;;;;;;;;;;1.54;100.00;99848.84;5092243;28;984;-68
2023/03/29 02:10:34;;;;;;;;;;;;;;;1.45;100.00;99850.88;5091976;28;1442;-68
2023/03/29 02:13:00;;;;;;;;;;;;;;;1.42;100.00;99858.59;5074040;28;1178;-68
2023/03/29 02:15:27;;;;;;;;;;;;;;;1.43;100.00;99851.22;5073855;28;1176;-69
2023/03/29 02:17:55;;;;;;;;;;;;;;;1.41;100.00;99858.94;5092103;28;839;-70
2023/03/29 02:20:30;;;;;;;;;;;;;;;1.44;100.00;99852.81;5092027;28;891;-69
2023/03/29 02:23:16;;;;;;;;;;;;;;;1.42;100.00;99865.97;5091882;28;1985;-70
2023/03/29 02:25:44;;;;;;;;;;;;;;;1.43;100.00;99846.56;5092055;28;835;-67
2023/03/29 02:28:11;;;;;;;;;;;;;;;1.42;100.00;99874.13;5091888;28;859;-67
2023/03/29 02:30:43;;;;;;;;;;;;;;;1.37;100.00;99864.25;5091947;28;910;-68
2023/03/29 02:33:18;;;;;;;;;;;;;;;1.37;100.00;99864.25;5091991;28;804;-70
2023/03/29 02:35:49;;;;;;;;;;;;;;;1.38;100.00;99871.28;5092076;28;816;-67
2023/03/29 02:38:16;;;;;;;;;;;;;;;1.40;100.00;99877.19;5091958;28;976;-68
2023/03/29 02:40:42;;;;;;;;;;;;;;;1.40;100.00;99869.03;5092024;28;894;-68
2023/03/29 02:43:11;;;;;;;;;;;;;;;1.43;100.00;99848.50;5091948;28;1952;-69
2023/03/29 02:45:39;;;;;;;;;;;;;;;1.45;100.00;99873.44;5091622;28;903;-68
2023/03/29 02:48:09;;;;;;;;;;;;;;;1.47;100.00;99875.84;5091682;28;832;-68
2023/03/29 02:50:37;;;;;;;;;;;;;;;1.48;100.00;99872.00;5091592;28;827;-67
2023/03/29 02:53:15;;;;;;;;;;;;;;;1.48;100.00;99883.69;5091572;28;859;-67
2023/03/29 02:55:44;;;;;;;;;;;;;;;1.52;100.00;99881.09;5091573;28;816;-70
2023/03/29 02:58:12;;;;;;;;;;;;;;;1.48;100.00;99889.13;5092104;28;836;-68
2023/03/29 03:00:44;;;;;;;;;;;;;;;1.49;100.00;99892.63;5091814;28;862;-68
2023/03/29 03:03:11;;;;;;;;;;;;;;;1.50;100.00;99896.97;5073269;28;1889;-69
2023/03/29 03:05:38;;;;;;;;;;;;;;;1.45;100.00;99906.13;5091564;28;812;-68
2023/03/29 03:08:06;;;;;;;;;;;;;;;1.48;100.00;99910.91;5091488;28;1003;-66
2023/03/29 03:10:33;;;;;;;;;;;;;;;1.48;100.00;99921.81;5091260;28;1228;-68
2023/03/29 03:13:00;;;;;;;;;;;;;;;1.50;100.00;99924.22;5091527;28;859;-70
2023/03/29 03:15:27;;;;;;;;;;;;;;;1.48;100.00;99927.25;5091350;28;862;-69
2023/03/29 03:17:53;;;;;;;;;;;;;;;1.51;100.00;99923.06;5091445;28;895;-70
2023/03/29 03:20:23;;;;;;;;;;;;;;;1.46;100.00;99918.63;5091341;28;870;-70
2023/03/29 03:22:49;;;;;;;;;;;;;;;1.49;100.00;99917.94;5091308;28;839;-70
2023/03/29 03:25:18;;;;;;;;;;;;;;;1.46;100.00;99921.34;5091221;28;1910;-69
2023/03/29 03:27:45;;;;;;;;;;;;;;;1.41;100.00;99930.53;5091314;28;878;-70
2023/03/29 03:30:12;;;;;;;;;;;;;;;1.42;100.00;99918.50;5073072;28;1162;-69
2023/03/29 03:32:40;;;;;;;;;;;;;;;1.48;100.00;99921.03;5091470;28;871;-69
2023/03/29 03:35:06;;;;;;;;;;;;;;;1.40;100.00;99923.50;5091203;28;836;-69
2023/03/29 03:37:33;;;;;;;;;;;;;;;1.40;100.00;99926.22;5091163;28;867;-68
2023/03/29 03:39:59;;;;;;;;;;;;;;;1.39;100.00;99932.81;5091175;28;840;-70
2023/03/29 03:42:29;;;;;;;;;;;;;;;1.41;100.00;99932.47;5091151;28;881;-70
2023/03/29 03:44:56;;;;;;;;;;;;;;;1.40;99.68;99939.03;5091067;28;1885;-68
2023/03/29 03:47:22;;;;;;;;;;;;;;;1.40;99.71;99942.56;5091308;28;888;-69
2023/03/29 03:49:48;;;;;;;;;;;;;;;1.42;99.38;99948.47;5091151;28;839;-70
2023/03/29 03:52:15;;;;;;;;;;;;;;;1.40;100.00;99936.31;5090980;28;973;-69
2023/03/29 03:54:42;;;;;;;;;;;;;;;1.39;97.93;99938.25;5090974;28;895;-69
2023/03/29 03:57:08;;;;;;;;;;;;;;;1.44;97.00;99937.25;5091208;28;820;-69
2023/03/29 03:59:35;;;;;;;;;;;;;;;1.45;97.05;99948.91;5091262;28;819;-69
2023/03/29 04:02:02;;;;;;;;;;;;;;;1.40;97.55;99953.44;5094501;28;915;-70
2023/03/29 04:04:29;;;;;;;;;;;;;;;1.36;97.66;99952.53;5094584;28;1877;-70
2023/03/29 04:07:01;;;;;;;;;;;;;;;1.33;97.36;99955.94;5094735;28;831;-70
2023/03/29 04:09:28;;;;;;;;;;;;;;;1.28;98.46;99958.88;5094467;28;1365;-69
2023/03/29 04:11:55;;;;;;;;;;;;;;;1.19;98.05;99958.94;5076304;28;1544;-68
2023/03/29 04:14:22;;;;;;;;;;;;;;;1.17;99.18;99960.41;5094466;28;843;-69
2023/03/29 04:16:48;;;;;;;;;;;;;;;1.11;98.78;99961.75;5094402;28;869;-70
2023/03/29 04:19:15;;;;;;;;;;;;;;;1.13;97.88;99964.94;5094336;28;918;-70
2023/03/29 04:21:44;;;;;;;;;;;;;;;1.14;97.85;99963.81;5094268;28;836;-69
2023/03/29 04:24:11;;;;;;;;;;;;;;;1.13;98.66;99968.47;5094092;28;1934;-68
2023/03/29 04:26:38;;;;;;;;;;;;;;;1.09;98.10;99975.72;5094255;28;847;-69
2023/03/29 04:29:05;;;;;;;;;;;;;;;1.10;98.67;99980.03;5094439;28;859;-70
2023/03/29 04:31:32;;;;;;;;;;;;;;;1.13;97.63;99986.72;5075920;28;1409;-70
2023/03/29 04:33:58;;;;;;;;;;;;;;;1.16;97.52;99986.84;5094052;28;816;-68
2023/03/29 04:36:25;;;;;;;;;;;;;;;1.21;97.14;100005.69;5094050;28;906;-70
2023/03/29 04:38:51;;;;;;;;;;;;;;;1.18;98.12;100019.22;5093859;28;848;-70
2023/03/29 04:41:22;;;;;;;;;;;;;;;1.20;99.07;100016.94;5075824;28;879;-70
2023/03/29 04:43:49;;;;;;;;;;;;;;;1.24;99.41;100015.16;5093842;28;1870;-70
2023/03/29 04:46:14;;;;;;;;;;;;;;;1.27;99.83;100019.13;5093795;28;818;-69
2023/03/29 04:48:41;;;;;;;;;;;;;;;1.21;100.00;100027.47;5093817;28;851;-70
2023/03/29 04:51:08;;;;;;;;;;;;;;;1.19;100.00;100018.06;5075462;28;1187;-70
2023/03/29 04:53:35;;;;;;;;;;;;;;;1.07;100.00;100015.28;5093761;28;835;-70
2023/03/29 04:56:02;;;;;;;;;;;;;;;0.94;100.00;100026.13;5093589;28;835;-69
2023/03/29 04:58:33;;;;;;;;;;;;;;;0.93;100.00;100023.72;5093511;28;915;-69
2023/03/29 05:01:00;;;;;;;;;;;;;;;0.95;100.00;100026.91;5093510;28;1011;-70
2023/03/29 05:03:26;;;;;;;;;;;;;;;1.19;100.00;100026.22;5093381;28;1979;-69
2023/03/29 05:05:54;;;;;;;;;;;;;;;1.52;100.00;100028.19;5075266;28;1211;-70
2023/03/29 05:08:20;;;;;;;;;;;;;;;1.80;95.27;100020.19;5093464;28;1025;-67
2023/03/29 05:10:48;;;;;;;;;;;;;;;2.15;94.82;100034.19;5093162;28;1422;-70
2023/03/29 05:13:15;;;;;;;;;;;;;;;2.63;89.92;100023.63;5092189;28;894;-70
2023/03/29 05:15:41;;;;;;;;;;;;;;;2.93;87.39;100031.53;5093237;28;839;-70
2023/03/29 05:18:08;;;;;;;;;;;;;;;2.96;84.20;100023.41;5093176;28;844;-68
2023/03/29 05:20:35;;;;;;;;;;;;;;;2.79;81.28;100018.22;5093373;28;883;-69
2023/03/29 05:23:03;;;;;;;;;;;;;;;2.65;84.85;100035.78;5093005;28;1917;-69
2023/03/29 05:25:29;;;;;;;;;;;;;;;2.79;83.39;100037.34;5093096;28;863;-70
2023/03/29 05:27:56;;;;;;;;;;;;;;;2.95;82.73;100040.97;5093121;28;839;-68
2023/03/29 05:30:22;;;;;;;;;;;;;;;3.18;80.55;100038.50;5092920;28;828;-70
2023/03/29 05:32:49;;;;;;;;;;;;;;;3.48;80.16;100047.16;5092922;28;1081;-70
2023/03/29 05:35:15;;;;;;;;;;;;;;;3.83;77.77;100045.72;5092803;28;827;-69
2023/03/29 05:37:42;;;;;;;;;;;;;;;3.91;75.16;100039.28;5092836;28;859;-70
2023/03/29 05:40:09;;;;;;;;;;;;;;;3.87;74.36;100039.19;5092809;28;930;-69
2023/03/29 05:42:38;;;;;;;;;;;;;;;3.96;72.71;100028.06;5092678;28;905;-69
2023/03/29 05:45:05;;;;;;;;;;;;;;;3.96;72.77;100043.69;5092825;28;1877;-70
2023/03/29 05:47:32;;;;;;;;;;;;;;;3.87;72.00;100043.88;5092693;28;915;-68
2023/03/29 05:49:58;;;;;;;;;;;;;;;3.85;72.02;100043.44;5092343;28;1257;-69
2023/03/29 05:52:24;;;;;;;;;;;;;;;4.00;71.23;100042.63;5092586;28;808;-68
2023/03/29 05:54:50;;;;;;;;;;;;;;;4.12;69.72;100043.69;5092522;28;828;-70
2023/03/29 05:57:18;;;;;;;;;;;;;;;4.35;68.53;100033.72;5092419;28;899;-69
2023/03/29 05:59:45;;;;;;;;;;;;;;;4.92;65.44;100036.97;5092492;28;840;-68
2023/03/29 06:02:14;;;;;;;;;;;;;;;5.11;63.96;100034.22;5092393;28;823;-68
2023/03/29 06:04:41;;;;;;;;;;;;;;;4.88;64.70;100034.13;5092225;28;1949;-67
2023/03/29 06:07:09;;;;;;;;;;;;;;;4.48;66.64;100053.56;5092232;28;921;-68
2023/03/29 06:09:36;;;;;;;;;;;;;;;3.98;67.34;100049.63;5092292;28;1368;-69
2023/03/29 06:12:03;;;;;;;;;;;;;;;3.75;67.71;100049.41;5092422;28;883;-68
2023/03/29 06:14:30;;;;;;;;;;;;;;;3.63;63.51;100044.81;5092196;28;882;-68
2023/03/29 06:16:56;;;;;;;;;;;;;;;3.58;64.55;100059.50;5092171;28;815;-69
2023/03/29 06:19:23;;;;;;;;;;;;;;;3.62;65.98;100056.88;5091985;28;875;-70
2023/03/29 06:21:52;;;;;;;;;;;;;;;3.74;66.56;100064.22;5092033;28;875;-70
2023/03/29 06:24:19;;;;;;;;;;;;;;;3.92;64.12;100070.94;5091611;28;1914;-69
2023/03/29 06:26:46;;;;;;;;;;;;;;;3.91;62.58;100072.09;5091927;28;866;-67
2023/03/29 06:29:12;;;;;;;;;;;;;;;4.08;61.97;100084.66;5091886;28;859;-70
2023/03/29 06:31:39;;;;;;;;;;;;;;;4.49;63.08;100088.00;5073653;28;1339;-71
2023/03/29 06:34:07;;;;;;;;;;;;;;;4.89;59.85;100090.50;5091815;28;872;-71
2023/03/29 06:36:34;;;;;;;;;;;;;;;5.07;61.26;100096.38;5091831;28;926;-71
2023/03/29 06:39:07;;;;;;;;;;;;;;;5.15;59.39;100097.34;5091991;28;922;-70
2023/03/29 06:41:33;;;;;;;;;;;;;;;5.33;58.78;100092.22;5091842;28;854;-67
2023/03/29 06:44:00;;;;;;;;;;;;;;;5.29;58.78;100105.88;5091720;28;1906;-71
2023/03/29 06:46:28;;;;;;;;;;;;;;;6.22;59.43;100101.41;5091695;28;815;-71
2023/03/29 06:48:54;;;;;;;;;;;;;;;7.22;57.24;100093.91;5091616;28;835;-71
2023/03/29 06:51:21;;;;;;;;;;;;;;;7.33;55.82;100105.03;5091501;28;891;-70
2023/03/29 06:53:47;;;;;;;;;;;;;;;7.30;55.43;100097.56;5091718;28;831;-70
2023/03/29 06:56:14;;;;;;;;;;;;;;;6.93;55.98;100099.03;5091574;28;831;-69
2023/03/29 06:58:41;;;;;;;;;;;;;;;6.98;56.54;100102.59;5091609;28;843;-71
2023/03/29 07:01:08;;;;;;;;;;;;;;;6.88;52.80;100095.78;5091642;28;894;-68
2023/03/29 07:03:35;;;;;;;;;;;;;;;6.74;54.48;100097.16;5091497;28;1947;-70
2023/03/29 07:06:08;;;;;;;;;;;;;;;6.44;54.90;100093.53;5091503;28;899;-70
2023/03/29 07:08:49;;;;;;;;;;;;;;;6.36;53.15;100100.06;5091616;28;921;-70
2023/03/29 07:11:17;;;;;;;;;;;;;;;6.19;53.54;100082.13;5091302;28;1280;-69
2023/03/29 07:13:45;;;;;;;;;;;;;;;6.26;53.79;100088.53;5091518;28;843;-71
2023/03/29 07:16:12;;;;;;;;;;;;;;;6.21;52.74;100088.03;5087458;28;1348;-69
2023/03/29 07:18:40;;;;;;;;;;;;;;;6.57;52.09;100083.91;5091326;28;867;-68
2023/03/29 07:21:07;;;;;;;;;;;;;;;6.70;50.91;100084.50;5091284;28;871;-70
2023/03/29 07:23:36;;;;;;;;;;;;;;;6.89;50.72;100100.91;5091340;28;1973;-69
2023/03/29 07:26:04;;;;;;;;;;;;;;;6.85;49.50;100088.25;5091275;28;843;-71
2023/03/29 07:28:31;;;;;;;;;;;;;;;7.07;50.50;100109.41;5091356;28;860;-71
2023/03/29 07:31:06;;;;;;;;;;;;;;;7.15;48.88;100083.59;5091186;28;878;-76
2023/03/29 07:33:33;;;;;;;;;;;;;;;6.63;48.59;100096.19;5091356;28;864;-73
2023/03/29 07:36:00;;;;;;;;;;;;;;;6.79;50.19;100103.50;5093582;28;808;-71
2023/03/29 07:38:27;;;;;;;;;;;;;;;6.86;47.93;100100.84;5095220;28;820;-69
2023/03/29 07:40:53;;;;;;;;;;;;;;;6.77;48.37;100114.06;5095245;28;808;-69
2023/03/29 07:43:20;;;;;;;;;;;;;;;7.00;49.32;100114.00;5095023;28;1890;-69
2023/03/29 07:45:47;;;;;;;;;;;;;;;7.32;47.32;100114.47;5094960;28;792;-70
2023/03/29 07:48:14;;;;;;;;;;;;;;;7.15;47.51;100110.31;5094887;28;820;-68
2023/03/29 07:50:42;;;;;;;;;;;;;;;7.22;45.97;100117.88;5094907;28;890;-70
2023/03/29 07:53:08;;;;;;;;;;;;;;;7.26;48.75;100105.75;5094804;28;895;-70
2023/03/29 07:55:36;;;;;;;;;;;;;;;7.43;47.92;100129.13;5094857;28;896;-68
2023/03/29 07:58:03;;;;;;;;;;;;;;;7.22;44.48;100134.34;5094684;28;994;-70
2023/03/29 08:00:29;;;;;;;;;;;;;;;6.98;46.52;100138.31;5094721;28;804;-70
2023/03/29 08:02:56;;;;;;;;;;;;;;;7.02;46.24;100141.91;5094629;28;851;-69
2023/03/29 08:05:23;;;;;;;;;;;;;;;7.02;46.97;100147.41;5094584;28;1910;-68
2023/03/29 08:07:49;;;;;;;;;;;;;;;7.25;48.36;100153.63;5094543;28;1111;-67
2023/03/29 08:10:21;;;;;;;;;;;;;;;7.85;45.83;100143.78;5094257;28;1430;-69
2023/03/29 08:12:49;;;;;;;;;;;;;;;8.03;45.07;100153.03;5094500;28;843;-65
2023/03/29 08:15:15;;;;;;;;;;;;;;;7.87;45.88;100144.19;5094484;28;852;-68
2023/03/29 08:17:42;;;;;;;;;;;;;;;8.09;45.15;100157.03;5094306;28;839;-69
2023/03/29 08:20:10;;;;;;;;;;;;;;;7.85;42.37;100152.03;5094421;28;906;-70
2023/03/29 08:22:36;;;;;;;;;;;;;;;7.46;43.03;100160.59;5094248;28;828;-70
2023/03/29 08:25:04;;;;;;;;;;;;;;;7.20;42.04;100153.19;5075983;28;1971;-69
2023/03/29 08:27:32;;;;;;;;;;;;;;;7.32;42.29;100145.50;5076107;28;888;-71
2023/03/29 08:29:59;;;;;;;;;;;;;;;7.57;45.44;100153.28;5094278;28;836;-71
2023/03/29 08:32:26;;;;;;;;;;;;;;;8.24;42.78;100154.44;5094576;28;772;-69
2023/03/29 08:34:52;;;;;;;;;;;;;;;7.81;42.17;100149.28;5094134;28;843;-69
2023/03/29 08:37:19;;;;;;;;;;;;;;;7.76;44.84;100155.09;5094007;28;808;-71
2023/03/29 08:39:45;;;;;;;;;;;;;;;8.55;43.10;100147.69;5093987;28;891;-70
2023/03/29 08:42:31;;;;;;;;;;;;;;;8.91;44.85;100164.50;5094023;28;883;-71
2023/03/29 08:45:07;;;;;;;;;;;;;;;8.92;40.35;100160.59;5093855;28;1877;-70
2023/03/29 08:47:40;;;;;;;;;;;;;;;8.57;40.19;100121.31;5075393;28;1199;-70
2023/03/29 08:50:07;;;;;;;;;;;;;;;8.30;40.04;100161.19;5093862;28;835;-70
2023/03/29 08:52:38;;;;;;;;;;;;;;;8.13;39.12;100157.09;5093681;28;939;-73
2023/03/29 08:55:13;;;;;;;;;;;;;;;7.57;40.67;100167.84;5093945;28;796;-69
2023/03/29 08:57:47;;;;;;;;;;;;;;;7.91;43.32;100156.84;5093686;28;973;-68
2023/03/29 09:00:23;;;;;;;;;;;;;;;8.64;40.29;100164.69;5093617;28;910;-69
2023/03/29 09:02:52;;;;;;;;;;;;;;;8.27;40.54;100162.72;5093485;28;926;-71
2023/03/29 09:05:28;;;;;;;;;;;;;;;7.88;41.47;100154.06;5093394;28;1947;-70
2023/03/29 09:07:54;;;;;;;;;;;;;;;7.60;40.22;100162.75;5093433;28;915;-70
2023/03/29 09:10:54;;;;;;;;;;;;;;;6.71;42.45;100165.78;5093299;28;1292;-69
2023/03/29 09:13:33;;;;;;;;;;;;;;;6.06;43.29;100166.56;5093330;28;899;-69
2023/03/29 09:16:23;;;;;;;;;;;;;;;6.67;44.28;100165.72;5093479;28;899;-69
2023/03/29 09:19:10;;;;;;;;;;;;;;;7.04;42.18;100164.31;5093302;28;827;-71
2023/03/29 09:21:44;;;;;;;;;;;;;;;6.79;42.85;100153.75;5078960;28;1203;-70
2023/03/29 09:24:17;;;;;;;;;;;;;;;7.67;42.95;100154.59;5093095;28;1952;-71
2023/03/29 09:27:13;;;;;;;;;;;;;;;7.70;42.65;100151.06;5074904;28;1166;-71
2023/03/29 09:29:46;;;;;;;;;;;;;;;7.08;42.53;100141.25;5058047;28;1449;-72
2023/03/29 09:32:25;;;;;;;;;;;;;;;7.01;42.04;100141.13;5074920;28;1628;-71
2023/03/29 09:35:23;;;;;;;;;;;;;;;7.50;42.96;100140.22;5093086;28;859;-71
2023/03/29 09:37:51;;;;;;;;;;;;;;;8.65;39.69;100138.72;5092974;28;824;-71
2023/03/29 10:09:07;;;;;;;;;;;;;;;9.81;34.91;100111.41;6098558;22;1505;-71
2023/03/29 10:11:35;;;;;;;;;;;;;;;9.97;35.86;100100.00;5051995;28;862;-69
2023/03/29 10:14:06;;;;;;;;;;;;;;;9.59;35.59;100110.53;5052065;28;843;-70
2023/03/29 10:16:46;;;;;;;;;;;;;;;9.46;34.44;100116.78;5051885;28;819;-70
2023/03/29 10:19:17;;;;;;;;;;;;;;;8.70;33.57;100110.00;5052102;28;835;-70
2023/03/29 10:21:45;;;;;;;;;;;;;;;7.65;34.31;100127.44;5051866;28;858;-70
2023/03/29 10:24:12;;;;;;;;;;;;;;;7.14;35.98;100112.25;5051697;28;1913;-69
2023/03/29 10:26:39;;;;;;;;;;;;;;;7.93;35.24;100121.47;5051818;28;852;-69
2023/03/29 10:29:07;;;;;;;;;;;;;;;8.48;34.51;100129.13;5050484;28;1191;-70
2023/03/29 10:31:40;;;;;;;;;;;;;;;8.38;34.53;100118.75;5051711;28;847;-70
2023/03/29 10:34:07;;;;;;;;;;;;;;;8.32;34.65;100128.53;5051629;28;934;-69
2023/03/29 10:36:35;;;;;;;;;;;;;;;8.10;35.37;100120.06;5051754;28;851;-70
2023/03/29 10:39:03;;;;;;;;;;;;;;;7.54;35.86;100129.28;5051430;28;925;-69
2023/03/29 10:41:32;;;;;;;;;;;;;;;6.79;38.72;100136.47;5051902;28;926;-68
2023/03/29 10:43:59;;;;;;;;;;;;;;;6.13;39.83;100136.53;5051593;28;1886;-72
2023/03/29 10:46:31;;;;;;;;;;;;;;;5.99;39.34;100128.81;5051537;28;827;-70
2023/03/29 10:48:58;;;;;;;;;;;;;;;6.91;38.16;100136.25;5051558;28;819;-70
2023/03/29 10:51:29;;;;;;;;;;;;;;;8.01;36.75;100125.09;5051479;28;859;-70
2023/03/29 10:53:58;;;;;;;;;;;;;;;8.05;35.74;100111.38;5051426;28;894;-70
2023/03/29 10:56:38;;;;;;;;;;;;;;;7.58;36.01;100121.88;5051709;28;827;-68
2023/03/29 10:59:13;;;;;;;;;;;;;;;7.16;38.02;100123.66;5051822;28;835;-71
2023/03/29 11:01:51;;;;;;;;;;;;;;;7.14;39.17;100136.19;5050100;28;1216;-70
2023/03/29 11:04:21;;;;;;;;;;;;;;;6.79;39.70;100133.72;5052055;28;1890;-70
2023/03/29 11:07:18;;;;;;;;;;;;;;;6.76;40.47;100135.22;5051391;28;858;-70
2023/03/29 11:10:03;;;;;;;;;;;;;;;7.59;40.80;100141.91;5015091;28;1273;-71
2023/03/29 11:12:29;;;;;;;;;;;;;;;8.25;36.42;100126.50;5033771;28;863;-72
2023/03/29 11:15:04;;;;;;;;;;;;;;;8.06;36.10;100146.00;5033481;28;898;-70
2023/03/29 11:17:51;;;;;;;;;;;;;;;7.45;36.22;100132.31;5033647;28;922;-73
2023/03/29 11:20:50;;;;;;;;;;;;;;;7.74;36.16;100144.44;5033463;28;1089;-74
2023/03/29 11:23:17;;;;;;;;;;;;;;;7.64;39.07;100136.88;5011655;28;1973;-70
2023/03/29 11:25:56;;;;;;;;;;;;;;;7.05;39.07;100132.94;5033458;28;1013;-74
2023/03/29 11:28:25;;;;;;;;;;;;;;;6.47;40.68;100158.72;5033443;28;1101;-73
2023/03/29 11:31:09;;;;;;;;;;;;;;;6.58;40.08;100142.41;5016538;28;1429;-71
2023/03/29 11:33:45;;;;;;;;;;;;;;;6.66;40.75;100144.13;5033045;28;1109;-72
2023/03/29 11:36:20;;;;;;;;;;;;;;;7.17;41.09;100129.97;5033082;28;914;-75
2023/03/29 11:38:53;;;;;;;;;;;;;;;7.45;39.86;100148.03;5032888;28;1064;-72
2023/03/29 11:41:28;;;;;;;;;;;;;;;6.98;41.18;100147.38;5033199;28;859;-71
2023/03/29 11:44:01;;;;;;;;;;;;;;;7.57;39.90;100147.78;5032815;28;1890;-68
2023/03/29 11:46:33;;;;;;;;;;;;;;;7.85;40.84;100150.09;5059884;28;926;-71
2023/03/29 11:49:03;;;;;;;;;;;;;;;7.34;41.20;100158.88;5056761;28;1512;-72
2023/03/29 11:51:36;;;;;;;;;;;;;;;6.92;44.40;100159.84;5074674;28;965;-71
2023/03/29 11:54:28;;;;;;;;;;;;;;;6.45;47.26;100172.00;5074592;28;835;-69
2023/03/29 11:56:57;;;;;;;;;;;;;;;6.36;48.41;100177.75;5066368;28;1041;-70
2023/03/29 11:59:30;;;;;;;;;;;;;;;6.96;48.79;100177.19;5074867;28;1042;-69
2023/03/29 12:02:19;;;;;;;;;;;;;;;6.81;45.93;100162.41;5074545;28;874;-69
2023/03/29 12:04:50;;;;;;;;;;;;;;;7.39;47.39;100161.31;5074405;28;1898;-70
2023/03/29 12:07:20;;;;;;;;;;;;;;;7.81;42.71;100152.03;5074241;28;863;-68
2023/03/29 12:09:52;;;;;;;;;;;;;;;7.73;43.18;100142.88;5074579;28;1120;-70
2023/03/29 12:12:19;;;;;;;;;;;;;;;7.46;45.74;100158.63;5074347;28;922;-71
2023/03/29 12:14:49;;;;;;;;;;;;;;;6.84;47.23;100163.63;5074423;28;874;-70
2023/03/29 12:17:19;;;;;;;;;;;;;;;6.30;50.08;100174.50;5074218;28;902;-69
2023/03/29 12:19:52;;;;;;;;;;;;;;;6.02;56.33;100179.47;5074242;28;875;-69
2023/03/29 12:22:19;;;;;;;;;;;;;;;5.84;51.44;100176.31;5073554;28;851;-70
2023/03/29 12:24:49;;;;;;;;;;;;;;;6.52;47.69;100169.38;5074300;28;1979;-69
2023/03/29 12:27:27;;;;;;;;;;;;;;;6.81;46.87;100159.66;5074769;28;795;-70
2023/03/29 12:30:03;;;;;;;;;;;;;;;7.15;45.06;100155.09;5074268;28;879;-71
2023/03/29 12:32:35;;;;;;;;;;;;;;;7.17;43.96;100146.47;5074310;28;1057;-70
2023/03/29 12:35:01;;;;;;;;;;;;;;;7.79;43.47;100162.59;5073881;28;922;-71
2023/03/29 12:37:32;;;;;;;;;;;;;;;7.65;43.08;100156.91;5073902;28;888;-75
2023/03/29 12:40:25;;;;;;;;;;;;;;;7.61;44.48;100161.59;5073853;28;850;-71
2023/03/29 12:43:05;;;;;;;;;;;;;;;7.95;43.98;100165.94;5089436;28;987;-68
2023/03/29 12:45:48;;;;;;;;;;;;;;;8.39;43.73;100169.94;5093844;28;1885;-70
2023/03/29 12:48:16;;;;;;;;;;;;;;;8.51;43.12;100172.47;5094181;28;870;-69
2023/03/29 12:50:50;;;;;;;;;;;;;;;9.00;42.11;100173.22;5094632;28;796;-70
2023/03/29 12:53:19;;;;;;;;;;;;;;;9.06;40.47;100182.72;5093770;28;887;-69
2023/03/29 12:56:00;;;;;;;;;;;;;;;8.42;41.97;100177.47;5093857;28;811;-69
2023/03/29 12:58:40;;;;;;;;;;;;;;;8.40;42.10;100174.25;5075547;28;1381;-69
2023/03/29 13:01:22;;;;;;;;;;;;;;;7.15;43.06;100176.28;5093606;28;895;-69
2023/03/29 13:03:50;;;;;;;;;;;;;;;6.73;45.25;100180.72;5093520;28;1886;-71
2023/03/29 13:06:34;;;;;;;;;;;;;;;7.12;45.40;100197.03;5093618;28;906;-69
2023/03/29 13:09:20;;;;;;;;;;;;;;;6.45;53.29;100213.19;5093925;28;1026;-74
2023/03/29 13:11:57;;;;;;;;;;;;;;;5.46;67.60;100233.50;5053692;28;831;-70
2023/03/29 13:14:26;;;;;;;;;;;;;;;3.81;92.11;100237.47;5053191;28;852;-71
2023/03/29 13:16:53;;;;;;;;;;;;;;;3.10;100.00;100236.09;5053196;28;855;-70
2023/03/29 13:19:29;;;;;;;;;;;;;;;3.45;100.00;100241.06;5053288;28;852;-73
2023/03/29 13:22:19;;;;;;;;;;;;;;;4.06;100.00;100229.97;5053461;28;824;-71
2023/03/29 13:24:52;;;;;;;;;;;;;;;4.68;87.84;100208.56;5042666;28;1926;-70
2023/03/29 13:27:20;;;;;;;;;;;;;;;4.67;82.67;100217.94;5053189;28;902;-72
2023/03/29 13:29:49;;;;;;;;;;;;;;;4.49;79.06;100214.72;5051894;28;1314;-73
2023/03/29 13:32:28;;;;;;;;;;;;;;;3.91;79.02;100217.06;5052531;28;952;-74
2023/03/29 13:35:27;;;;;;;;;;;;;;;4.09;75.87;100215.59;5052639;28;807;-75
2023/03/29 13:38:09;;;;;;;;;;;;;;;4.94;69.51;100215.44;5009136;28;1270;-75
2023/03/29 13:40:46;;;;;;;;;;;;;;;5.55;68.29;100208.63;5052936;28;819;-73
2023/03/29 13:43:19;;;;;;;;;;;;;;;5.98;65.54;100223.28;5053181;28;816;-72
2023/03/29 13:46:05;;;;;;;;;;;;;;;6.13;60.82;100207.91;5052603;28;878;-70
2023/03/29 13:48:48;;;;;;;;;;;;;;;5.16;64.93;100222.22;5052541;28;1070;-71
2023/03/29 13:51:18;;;;;;;;;;;;;;;5.50;66.26;100217.94;5054181;28;784;-74
2023/03/29 13:54:06;;;;;;;;;;;;;;;6.17;63.08;100214.25;5053092;28;824;-69